createdAt,value
2018-04-15T00:00:06.132Z,3.13
2018-04-15T00:02:34.685Z,2.80
2018-04-15T00:05:03.710Z,3.20
2018-04-15T00:07:32.238Z,2.80
2018-04-15T00:10:00.816Z,2.67
2018-04-15T00:12:29.306Z,3.60
2018-04-15T00:14:57.851Z,3.07
2018-04-15T00:17:26.371Z,3.30
2018-04-15T00:19:54.897Z,3.17
2018-04-15T00:22:23.452Z,3.27
2018-04-15T00:24:52.752Z,3.27
2018-04-15T00:27:21.316Z,3.50
2018-04-15T00:29:49.876Z,3.33
2018-04-15T00:32:18.509Z,3.60
2018-04-15T00:34:47.133Z,4.20
2018-04-15T00:37:15.579Z,2.73
2018-04-15T00:39:44.420Z,3.97
2018-04-15T00:42:13.067Z,3.73
2018-04-15T00:44:41.557Z,3.63
2018-04-15T00:47:10.060Z,3.83
2018-04-15T00:49:38.551Z,3.50
2018-04-15T00:52:07.024Z,3.60
2018-04-15T00:54:35.522Z,4.47
2018-04-15T00:57:04.048Z,3.13
2018-04-15T00:59:32.562Z,3.37
2018-04-15T01:02:01.801Z,4.87
2018-04-15T01:04:30.424Z,3.70
2018-04-15T01:06:58.994Z,3.80
2018-04-15T01:09:27.478Z,4.10
2018-04-15T01:11:55.980Z,4.40
2018-04-15T01:14:24.813Z,4.40
2018-04-15T01:16:53.535Z,4.50
2018-04-15T01:19:22.160Z,4.80
2018-04-15T01:21:50.700Z,4.27
2018-04-15T01:24:20.073Z,4.30
2018-04-15T01:26:49.483Z,4.23
2018-04-15T01:29:18.018Z,4.50
2018-04-15T01:31:46.582Z,4.17
2018-04-15T01:34:15.271Z,4.53
2018-04-15T01:36:43.880Z,3.70
2018-04-15T01:39:23.629Z,4.60
2018-04-15T01:41:52.340Z,4.70
2018-04-15T01:44:20.948Z,4.70
2018-04-15T01:46:49.491Z,4.60
2018-04-15T01:49:17.977Z,5.27
2018-04-15T01:51:46.384Z,5.30
2018-04-15T01:54:14.876Z,4.80
2018-04-15T01:56:43.476Z,5.27
2018-04-15T01:59:12.146Z,5.20
2018-04-15T02:01:40.644Z,5.60
2018-04-15T02:04:10.344Z,4.23
2018-04-15T02:06:38.913Z,4.50
2018-04-15T02:09:07.449Z,4.13
2018-04-15T02:11:35.925Z,4.93
2018-04-15T02:14:04.408Z,5.40
2018-04-15T02:16:32.666Z,4.77
2018-04-15T02:19:01.108Z,4.37
2018-04-15T02:21:29.705Z,4.73
2018-04-15T02:23:58.984Z,4.30
2018-04-15T02:26:27.738Z,4.50
2018-04-15T02:28:56.291Z,3.60
2018-04-15T02:31:25.091Z,3.57
2018-04-15T02:33:53.956Z,3.70
2018-04-15T02:36:23.598Z,3.97
2018-04-15T02:38:52.066Z,3.80
2018-04-15T02:41:20.315Z,3.40
2018-04-15T02:43:48.784Z,3.63
2018-04-15T02:46:16.999Z,3.37
2018-04-15T02:48:45.484Z,3.10
2018-04-15T02:51:14.003Z,3.90
2018-04-15T02:53:42.528Z,3.00
2018-04-15T02:56:11.207Z,3.10
2018-04-15T02:58:39.680Z,4.23
2018-04-15T03:01:08.151Z,3.20
2018-04-15T03:03:36.412Z,3.67
2018-04-15T03:06:04.886Z,3.10
2018-04-15T03:08:33.412Z,2.60
2018-04-15T03:11:01.906Z,2.50
2018-04-15T03:13:30.503Z,2.40
2018-04-15T03:15:59.026Z,1.87
2018-04-15T03:18:27.500Z,2.00
2018-04-15T03:20:55.992Z,1.90
2018-04-15T03:23:24.487Z,1.13
2018-04-15T03:25:53.001Z,1.40
2018-04-15T03:28:21.501Z,1.30
2018-04-15T03:30:50.007Z,1.77
2018-04-15T03:33:18.647Z,1.40
2018-04-15T03:35:47.130Z,1.80
2018-04-15T03:38:15.641Z,1.33
2018-04-15T03:40:44.122Z,1.90
2018-04-15T03:43:12.682Z,1.60
2018-04-15T03:45:41.215Z,1.50
2018-04-15T03:48:09.735Z,1.80
2018-04-15T03:50:38.268Z,1.57
2018-04-15T03:53:06.812Z,1.40
2018-04-15T03:55:35.340Z,1.63
2018-04-15T03:58:03.809Z,1.37
2018-04-15T04:00:32.375Z,1.70
2018-04-15T04:03:00.916Z,1.10
2018-04-15T04:05:29.542Z,1.47
2018-04-15T04:07:58.854Z,1.30
2018-04-15T04:10:28.184Z,1.40
2018-04-15T04:12:57.454Z,1.63
2018-04-15T04:15:26.215Z,1.10
2018-04-15T04:18:05.906Z,1.20
2018-04-15T04:20:45.778Z,1.00
2018-04-15T04:26:05.085Z,1.20
2018-04-15T04:28:33.582Z,0.83
2018-04-15T04:31:02.054Z,1.20
2018-04-15T04:33:30.552Z,1.20
2018-04-15T04:35:59.047Z,0.80
2018-04-15T04:38:27.576Z,1.20
2018-04-15T04:40:56.146Z,1.00
2018-04-15T04:43:24.618Z,1.17
2018-04-15T04:54:33.484Z,1.10
2018-04-15T05:00:44.571Z,0.90
2018-04-15T05:03:13.034Z,1.00
2018-04-15T05:11:41.402Z,0.83
2018-04-15T05:14:29.756Z,0.80
2018-04-15T05:22:50.869Z,1.17
2018-04-15T05:28:06.035Z,0.77
2018-04-15T05:30:35.366Z,0.70
2018-04-15T05:36:02.793Z,0.87
2018-04-15T05:38:33.244Z,1.00
2018-04-15T05:41:01.840Z,0.93
2018-04-15T05:43:34.709Z,1.07
2018-04-15T05:46:03.320Z,1.30
2018-04-15T05:48:32.326Z,0.73
2018-04-15T05:51:00.845Z,0.77
2018-04-15T05:53:29.331Z,0.70
2018-04-15T05:55:57.899Z,0.70
2018-04-15T05:58:26.588Z,0.97
2018-04-15T06:00:55.118Z,0.67
2018-04-15T06:03:23.617Z,0.90
2018-04-15T06:05:54.422Z,0.70
2018-04-15T06:08:46.621Z,0.50
2018-04-15T06:11:15.224Z,0.77
2018-04-15T06:13:44.883Z,0.77
2018-04-15T06:19:02.269Z,0.70
2018-04-15T06:21:35.934Z,0.73
2018-04-15T06:24:12.090Z,0.93
2018-04-15T06:26:40.638Z,1.03
2018-04-15T06:29:10.071Z,1.03
2018-04-15T06:31:38.829Z,1.10
2018-04-15T06:34:12.288Z,1.30
2018-04-15T06:36:42.255Z,1.43
2018-04-15T06:39:10.790Z,1.20
2018-04-15T06:41:40.080Z,1.43
2018-04-15T06:44:08.733Z,1.37
2018-04-15T06:46:37.302Z,1.30
2018-04-15T06:49:05.813Z,1.40
2018-04-15T06:51:34.151Z,1.10
2018-04-15T06:54:02.691Z,1.10
2018-04-15T06:56:31.717Z,1.50
2018-04-15T06:59:00.484Z,2.07
2018-04-15T07:01:35.044Z,1.10
2018-04-15T07:04:03.633Z,1.43
2018-04-15T07:06:33.031Z,1.60
2018-04-15T07:11:43.150Z,1.50
2018-04-15T07:14:11.714Z,1.30
2018-04-15T07:16:40.150Z,1.20
2018-04-15T07:19:08.674Z,1.27
2018-04-15T07:21:37.213Z,0.87
2018-04-15T07:24:05.715Z,1.00
2018-04-15T07:26:34.828Z,2.10
2018-04-15T07:29:04.151Z,1.53
2018-04-15T07:31:34.285Z,1.33
2018-04-15T07:34:04.745Z,1.17
2018-04-15T07:36:33.203Z,1.60
2018-04-15T07:39:01.795Z,1.53
2018-04-15T07:41:29.975Z,1.47
2018-04-15T07:43:58.414Z,2.00
2018-04-15T07:46:26.879Z,1.93
2018-04-15T07:48:55.371Z,1.77
2018-04-15T07:51:28.510Z,1.47
2018-04-15T07:53:57.462Z,1.80
2018-04-15T07:56:30.140Z,1.40
2018-04-15T07:58:58.615Z,1.30
2018-04-15T08:01:31.618Z,1.67
2018-04-15T08:04:00.263Z,1.30
2018-04-15T08:06:30.035Z,1.60
2018-04-15T08:08:58.726Z,1.60
2018-04-15T08:11:27.249Z,1.50
2018-04-15T08:13:56.439Z,1.53
2018-04-15T08:16:24.954Z,1.17
2018-04-15T08:18:53.565Z,0.93
2018-04-15T08:21:25.211Z,1.20
2018-04-15T08:23:53.794Z,1.70
2018-04-15T08:26:23.074Z,1.37
2018-04-15T08:28:51.831Z,1.80
2018-04-15T08:31:20.336Z,1.50
2018-04-15T08:33:49.734Z,1.40
2018-04-15T08:36:18.525Z,1.30
2018-04-15T08:38:47.937Z,2.40
2018-04-15T08:41:19.543Z,1.53
2018-04-15T08:43:48.051Z,1.90
2018-04-15T08:46:19.267Z,1.30
2018-04-15T08:48:47.766Z,1.60
2018-04-15T08:54:10.735Z,1.10
2018-04-15T08:56:42.544Z,1.80
2018-04-15T08:59:11.118Z,2.57
2018-04-15T09:01:42.940Z,1.20
2018-04-15T09:04:12.317Z,1.30
2018-04-15T09:06:41.652Z,1.70
2018-04-15T09:09:14.873Z,1.50
2018-04-15T09:11:43.454Z,1.50
2018-04-15T09:14:11.946Z,1.70
2018-04-15T09:16:41.203Z,1.53
2018-04-15T09:19:10.003Z,1.50
2018-04-15T09:21:39.441Z,1.30
2018-04-15T09:24:08.730Z,1.43
2018-04-15T09:26:37.300Z,1.37
2018-04-15T09:29:06.050Z,1.40
2018-04-15T09:31:35.429Z,1.67
2018-04-15T09:34:03.938Z,1.20
2018-04-15T09:36:32.457Z,1.07
2018-04-15T09:39:00.853Z,1.40
2018-04-15T09:41:29.352Z,1.50
2018-04-15T09:43:57.897Z,1.63
2018-04-15T09:46:26.578Z,1.10
2018-04-15T09:48:55.202Z,1.20
2018-04-15T09:51:23.750Z,1.40
2018-04-15T09:53:52.754Z,1.50
2018-04-15T09:56:21.299Z,1.30
2018-04-15T09:58:49.860Z,1.90
2018-04-15T10:01:18.443Z,1.57
2018-04-15T10:03:47.693Z,1.57
2018-04-15T10:06:16.206Z,1.73
2018-04-15T10:08:46.491Z,1.90
2018-04-15T10:11:19.584Z,1.43
2018-04-15T10:14:00.685Z,1.60
2018-04-15T10:16:29.368Z,1.40
2018-04-15T10:19:02.230Z,1.30
2018-04-15T10:21:30.773Z,1.87
2018-04-15T10:23:59.540Z,2.23
2018-04-15T10:26:51.531Z,1.23
2018-04-15T10:29:20.122Z,1.87
2018-04-15T10:31:48.804Z,2.23
2018-04-15T10:34:18.030Z,2.10
2018-04-15T10:36:46.532Z,1.30
2018-04-15T10:39:15.183Z,1.43
2018-04-15T10:41:44.020Z,1.60
2018-04-15T10:49:44.434Z,1.77
2018-04-15T10:52:12.663Z,1.23
2018-04-15T10:54:43.341Z,1.23
2018-04-15T10:57:12.586Z,1.10
2018-04-15T10:59:41.098Z,1.60
2018-04-15T11:02:09.644Z,0.87
2018-04-15T11:04:38.144Z,1.57
2018-04-15T11:07:06.646Z,2.07
2018-04-15T11:09:51.608Z,1.70
2018-04-15T11:12:21.599Z,2.07
2018-04-15T11:14:52.225Z,1.60
2018-04-15T11:17:20.852Z,1.30
2018-04-15T11:19:49.403Z,0.93
2018-04-15T11:22:23.712Z,1.30
2018-04-15T11:24:53.286Z,0.80
2018-04-15T11:27:24.315Z,1.10
2018-04-15T11:29:52.810Z,1.43
2018-04-15T11:32:21.724Z,1.60
2018-04-15T11:34:53.503Z,1.40
2018-04-15T11:37:24.378Z,1.33
2018-04-15T11:39:53.861Z,1.10
2018-04-15T11:42:22.391Z,1.70
2018-04-15T11:44:51.685Z,1.37
2018-04-15T11:47:21.260Z,1.30
2018-04-15T11:49:51.193Z,1.30
2018-04-15T11:52:22.969Z,1.60
2018-04-15T11:57:45.246Z,1.50
2018-04-15T12:00:14.174Z,1.63
2018-04-15T12:02:42.624Z,1.90
2018-04-15T12:05:22.652Z,1.70
2018-04-15T12:07:52.163Z,1.30
2018-04-15T12:10:20.715Z,1.20
2018-04-15T12:12:51.680Z,1.30
2018-04-15T12:15:20.162Z,2.07
2018-04-15T12:17:58.934Z,1.10
2018-04-15T12:20:29.338Z,1.37
2018-04-15T12:26:25.311Z,1.80
2018-04-15T12:37:44.923Z,1.70
2018-04-15T12:40:21.830Z,1.80
2018-04-15T12:42:50.377Z,1.77
2018-04-15T12:45:18.897Z,1.63
2018-04-15T12:47:47.732Z,1.60
2018-04-15T12:50:20.451Z,1.33
2018-04-15T12:55:49.276Z,1.40
2018-04-15T12:58:20.722Z,1.27
2018-04-15T13:00:52.508Z,1.30
2018-04-15T13:03:21.013Z,1.37
2018-04-15T13:05:49.491Z,1.57
2018-04-15T13:08:18.940Z,1.50
2018-04-15T13:13:40.688Z,1.90
2018-04-15T13:16:10.979Z,1.97
2018-04-15T13:18:40.766Z,1.90
2018-04-15T13:21:19.243Z,1.90
2018-04-15T13:23:47.943Z,2.10
2018-04-15T13:26:16.138Z,2.43
2018-04-15T13:28:44.570Z,1.77
2018-04-15T13:31:12.982Z,2.17
2018-04-15T13:33:41.394Z,2.70
2018-04-15T13:36:10.569Z,2.63
2018-04-15T13:38:39.001Z,2.33
2018-04-15T13:41:25.024Z,2.57
2018-04-15T13:43:54.104Z,2.00
2018-04-15T13:49:18.722Z,2.30
2018-04-15T13:51:47.111Z,3.37
2018-04-15T13:54:27.992Z,2.93
2018-04-15T13:59:40.830Z,6.50
2018-04-15T14:02:09.338Z,7.60
2018-04-15T14:04:37.848Z,3.70
2018-04-15T14:07:06.358Z,5.10
2018-04-15T14:09:36.102Z,2.37
2018-04-15T14:12:04.764Z,4.90
2018-04-15T14:20:29.082Z,2.83
2018-04-15T14:25:56.498Z,2.10
2018-04-15T14:28:26.218Z,1.80
2018-04-15T14:30:54.706Z,2.00
2018-04-15T14:33:23.257Z,2.10
2018-04-15T14:35:51.446Z,2.00
2018-04-15T14:38:19.979Z,1.90
2018-04-15T14:40:51.306Z,2.10
2018-04-15T14:43:20.725Z,1.90
2018-04-15T14:45:49.972Z,2.00
2018-04-15T14:48:18.463Z,1.83
2018-04-15T14:50:46.962Z,1.80
2018-04-15T14:56:02.969Z,2.13
2018-04-15T14:58:33.591Z,2.10
2018-04-15T15:01:09.455Z,1.70
2018-04-15T15:03:39.652Z,1.50
2018-04-15T15:06:08.764Z,1.27
2018-04-15T15:08:41.662Z,1.73
2018-04-15T15:11:11.916Z,2.47
2018-04-15T15:13:40.354Z,2.20
2018-04-15T15:16:08.582Z,2.13
2018-04-15T15:18:37.191Z,1.60
2018-04-15T15:21:05.879Z,5.10
2018-04-15T15:23:34.925Z,1.80
2018-04-15T15:31:42.869Z,1.40
2018-04-15T15:34:11.354Z,1.97
2018-04-15T15:36:39.872Z,1.90
2018-04-15T15:39:08.104Z,1.87
2018-04-15T15:41:37.326Z,2.10
2018-04-15T15:44:05.841Z,2.60
2018-04-15T15:46:35.258Z,3.27
2018-04-15T15:51:58.619Z,4.33
2018-04-15T15:54:26.960Z,3.80
2018-04-15T15:56:56.373Z,4.90
2018-04-15T15:59:35.832Z,2.30
2018-04-15T16:04:57.491Z,2.73
2018-04-15T16:07:41.539Z,3.70
2018-04-15T16:13:03.682Z,3.87
2018-04-15T16:15:32.288Z,2.30
2018-04-15T16:18:16.846Z,1.63
2018-04-15T16:20:53.990Z,2.00
2018-04-15T16:23:25.094Z,5.00
2018-04-15T16:25:53.558Z,2.80
2018-04-15T16:28:22.042Z,2.27
2018-04-15T16:30:50.547Z,1.83
2018-04-15T16:33:19.070Z,1.87
2018-04-15T16:35:56.241Z,1.80
2018-04-15T16:38:35.396Z,1.50
2018-04-15T16:44:44.328Z,2.10
2018-04-15T16:47:14.983Z,2.10
2018-04-15T16:49:45.053Z,3.20
2018-04-15T16:52:13.522Z,3.47
2018-04-15T16:54:48.758Z,3.27
2018-04-15T16:57:17.530Z,2.23
2018-04-15T16:59:46.081Z,2.20
2018-04-15T17:02:14.789Z,2.03
2018-04-15T17:04:48.387Z,2.30
2018-04-15T17:07:16.983Z,2.00
2018-04-15T17:09:47.269Z,1.87
2018-04-15T17:12:15.733Z,1.93
2018-04-15T17:14:44.498Z,2.27
2018-04-15T17:17:13.325Z,2.70
2018-04-15T17:19:41.831Z,1.90
2018-04-15T17:22:10.039Z,2.40
2018-04-15T17:24:43.152Z,1.90
2018-04-15T17:27:11.836Z,1.73
2018-04-15T17:29:44.221Z,2.30
2018-04-15T17:32:15.461Z,2.33
2018-04-15T17:46:50.572Z,2.07
2018-04-15T17:49:19.286Z,2.20
2018-04-15T17:51:53.531Z,2.20
2018-04-15T17:54:22.054Z,1.90
2018-04-15T17:56:51.515Z,2.00
2018-04-15T17:59:20.297Z,2.17
2018-04-15T18:01:48.785Z,2.50
2018-04-15T18:04:20.447Z,2.60
2018-04-15T18:09:42.875Z,2.90
2018-04-15T18:12:14.746Z,2.50
2018-04-15T18:14:43.531Z,2.90
2018-04-15T18:19:49.874Z,2.87
2018-04-15T18:22:22.799Z,3.40
2018-04-15T18:24:51.668Z,3.10
2018-04-15T18:27:23.392Z,3.27
2018-04-15T18:29:51.885Z,3.10
2018-04-15T18:32:20.178Z,3.10
2018-04-15T18:34:48.658Z,2.60
2018-04-15T18:37:18.325Z,3.13
2018-04-15T18:39:47.811Z,2.50
2018-04-15T18:42:17.110Z,3.33
2018-04-15T18:44:45.555Z,3.37
2018-04-15T18:47:15.359Z,3.23
2018-04-15T18:49:43.829Z,3.50
2018-04-15T18:52:15.117Z,3.07
2018-04-15T18:54:44.587Z,3.00
2018-04-15T18:57:13.850Z,2.87
2018-04-15T18:59:42.918Z,3.57
2018-04-15T19:02:12.117Z,3.40
2018-04-15T19:04:40.630Z,3.33
2018-04-15T19:07:16.004Z,4.10
2018-04-15T19:09:46.695Z,3.80
2018-04-15T19:12:41.594Z,3.83
2018-04-15T19:21:16.010Z,3.90
2018-04-15T19:23:44.838Z,3.97
2018-04-15T19:26:13.392Z,4.20
2018-04-15T19:28:41.869Z,3.47
2018-04-15T19:33:55.251Z,4.40
2018-04-15T19:36:23.803Z,4.50
2018-04-15T19:38:53.241Z,3.83
2018-04-15T19:41:21.982Z,4.30
2018-04-15T19:43:50.992Z,3.43
2018-04-15T19:46:20.253Z,3.03
2018-04-15T19:48:48.625Z,3.40
2018-04-15T19:57:21.397Z,2.93
2018-04-15T19:59:50.855Z,3.73
2018-04-15T20:02:39.168Z,2.90
2018-04-15T20:11:21.565Z,3.00
2018-04-15T20:13:51.110Z,2.50
2018-04-15T20:16:20.653Z,2.60
2018-04-15T20:18:49.224Z,3.00
2018-04-15T20:28:21.113Z,2.50
2018-04-15T20:30:50.440Z,2.77
2018-04-15T20:33:20.646Z,2.90
2018-04-15T20:36:19.432Z,2.80
2018-04-15T20:42:03.253Z,3.40
2018-04-15T20:44:35.095Z,3.10
2018-04-15T20:47:09.461Z,3.13
2018-04-15T20:52:45.578Z,3.20
2018-04-15T20:55:14.583Z,2.87
2018-04-15T20:57:48.207Z,2.47
2018-04-15T21:00:17.463Z,3.67
2018-04-15T21:02:48.726Z,3.67
2018-04-15T21:05:17.468Z,3.37
2018-04-15T21:10:48.402Z,2.47
2018-04-15T21:13:19.026Z,2.90
2018-04-15T21:18:53.360Z,2.33
2018-04-15T21:21:21.793Z,2.83
2018-04-15T21:23:52.096Z,2.57
2018-04-15T21:29:18.192Z,2.20
2018-04-15T21:38:01.548Z,2.57
2018-04-15T21:43:40.779Z,2.63
2018-04-15T21:46:10.072Z,2.80
2018-04-15T21:48:50.402Z,2.20
2018-04-15T21:51:20.180Z,3.00
2018-04-15T21:53:51.789Z,3.23
2018-04-15T21:56:23.401Z,2.50
2018-04-15T22:01:48.407Z,2.90
2018-04-15T22:04:16.905Z,2.97
2018-04-15T22:06:48.219Z,2.90
2018-04-15T22:09:17.487Z,3.10
2018-04-15T22:12:01.736Z,2.70
2018-04-15T22:14:30.278Z,3.20
2018-04-15T22:20:13.123Z,2.80
2018-04-15T22:22:49.960Z,2.83
2018-04-15T22:28:47.709Z,2.67
2018-04-15T22:37:17.339Z,2.60
2018-04-15T22:39:53.771Z,2.10
2018-04-15T22:42:23.339Z,2.67
2018-04-15T22:44:51.859Z,2.37
2018-04-15T22:50:23.058Z,1.97
2018-04-15T22:52:54.810Z,2.23
2018-04-15T22:55:24.293Z,2.70
2018-04-15T22:57:53.049Z,2.63
2018-04-15T23:00:22.325Z,2.57
2018-04-15T23:02:50.755Z,2.70
2018-04-15T23:05:26.602Z,2.33
2018-04-15T23:10:32.040Z,2.63
2018-04-15T23:15:45.984Z,2.30
2018-04-15T23:18:14.578Z,2.23
2018-04-15T23:20:43.114Z,2.93
2018-04-15T23:23:11.607Z,3.27
2018-04-15T23:31:29.288Z,3.77
2018-04-15T23:33:57.762Z,2.80
2018-04-15T23:36:26.225Z,2.60
2018-04-15T23:39:18.716Z,2.70
2018-04-15T23:47:49.176Z,3.10
2018-04-15T23:50:17.829Z,2.73
2018-04-15T23:58:32.837Z,3.07
